Nearby METAR Reports

 

EGDR - Culdrose (navy), United Kingdom
Distance from station: S 10mi, 17km
Updated: 20/05/2022 01:50
NOT Current
Mostly cloudy
Mostly cloudy
 Wind from S
Wind: S 5 mph , 7 km/h
Temperature: 12°C
Dew Point: 11°C
Humidity: 94%
Barometer: 1019 hPa
Clouds: Mostly cloudy
Visibility: 6 miles , 10 km
Cloud details: Few Clouds 183 m
Partly cloudy 305 m
Mostly cloudy 3353 m
2022/05/20 00:50 EGDR 200050Z AUTO 17004KT 9999 FEW006/// SCT010/// BKN110/// 12/11 Q1019
EGHQ - Newquay, United Kingdom
Distance from station: NE 17mi, 27km
Updated: 20/05/2022 02:50
Mist, Clear
Mist, Clear
 Wind from S
Wind: S 8 mph , 13 km/h
Temperature: 12°C
Dew Point: 11°C
Humidity: 94%
Barometer: 1019 hPa
Summary: Mist
Clouds: Clear
Visibility: 3 miles , 4 km
2022/05/20 01:50 EGHQ 200150Z AUTO 17007KT 4100 BR NCD 12/11 Q1019
 
EGHC - Lands End, United Kingdom
Distance from station: WSW 22mi, 35km
Updated: 19/05/2022 17:50
NOT Current
Few Clouds
Few Clouds
 Wind from SSW
Wind: SSW 12 mph , 19 km/h
Temperature: 14°C
Dew Point: 11°C
Humidity: 82%
Barometer: 1020 hPa
Clouds: Few Clouds
Visibility: 6 miles , 10 km
Cloud details: Few Clouds 457 m
2022/05/19 16:50 EGHC 191650Z 21010KT 9999 FEW015 14/11 Q1020